createdAt,value
2022-09-15T00:00:23.453Z,987.4
2022-09-15T00:01:25.323Z,987.4
2022-09-15T00:02:26.736Z,987.4
2022-09-15T00:03:28.308Z,987.4
2022-09-15T00:04:29.734Z,987.4
2022-09-15T00:05:31.325Z,987.3
2022-09-15T00:06:32.249Z,987.3
2022-09-15T00:07:33.189Z,987.4
2022-09-15T00:08:34.193Z,987.4
2022-09-15T00:09:35.228Z,987.4
2022-09-15T00:10:36.263Z,987.4
2022-09-15T00:11:37.228Z,987.3
2022-09-15T00:12:38.387Z,987.3
2022-09-15T00:13:40.318Z,987.2
2022-09-15T00:14:41.584Z,987.2
2022-09-15T00:15:43.326Z,987.1
2022-09-15T00:16:44.544Z,987.1
2022-09-15T00:17:46.245Z,987
2022-09-15T00:18:47.205Z,987
2022-09-15T00:19:48.286Z,987
2022-09-15T00:20:49.293Z,987
2022-09-15T00:21:50.225Z,987.1
2022-09-15T00:22:51.187Z,987
2022-09-15T00:23:52.254Z,987
2022-09-15T00:24:53.252Z,987
2022-09-15T00:25:54.465Z,986.9
2022-09-15T00:26:56.712Z,986.9
2022-09-15T00:27:58.373Z,986.9
2022-09-15T00:29:00.326Z,986.9
2022-09-15T00:30:01.547Z,986.9
2022-09-15T00:31:03.326Z,987
2022-09-15T00:32:04.381Z,987
2022-09-15T00:33:06.493Z,987.1
2022-09-15T00:34:08.234Z,987
2022-09-15T00:35:09.406Z,987
2022-09-15T00:36:11.266Z,987
2022-09-15T00:37:12.245Z,987
2022-09-15T00:38:13.227Z,987
2022-09-15T00:39:14.157Z,987
2022-09-15T00:40:15.488Z,987.1
2022-09-15T00:41:17.325Z,987.1
2022-09-15T00:42:18.266Z,987.1
2022-09-15T00:43:19.339Z,987.1
2022-09-15T00:44:21.266Z,987.2
2022-09-15T00:45:22.546Z,987.1
2022-09-15T00:46:24.325Z,987.1
2022-09-15T00:47:25.566Z,987.1
2022-09-15T00:48:27.225Z,987.1
2022-09-15T00:49:28.226Z,987.2
2022-09-15T00:50:29.325Z,987.2
2022-09-15T00:51:30.245Z,987.1
2022-09-15T00:52:31.205Z,987.2
2022-09-15T00:53:32.226Z,987.2
2022-09-15T00:54:33.225Z,987.1
2022-09-15T00:55:34.317Z,987.2
2022-09-15T00:56:35.266Z,987.1
2022-09-15T00:57:36.247Z,987.1
2022-09-15T00:58:37.325Z,987.1
2022-09-15T00:59:39.505Z,987.2
2022-09-15T01:04:01.949Z,987.1
2022-09-15T01:05:03.330Z,987.1
2022-09-15T01:06:04.310Z,987.1
2022-09-15T01:07:05.250Z,987.1
2022-09-15T01:08:06.252Z,987.1
2022-09-15T01:09:07.670Z,987.2
2022-09-15T01:10:09.251Z,987.1
2022-09-15T01:11:10.362Z,987.1
2022-09-15T01:12:11.251Z,987.1
2022-09-15T01:13:12.310Z,987.1
2022-09-15T01:14:13.290Z,987.1
2022-09-15T01:15:14.290Z,987.2
2022-09-15T01:17:47.311Z,987.1
2022-09-15T01:18:48.232Z,987.1
2022-09-15T01:19:49.300Z,987.2
2022-09-15T01:20:50.251Z,987.1
2022-09-15T01:21:53.685Z,987.1
2022-09-15T01:22:52.251Z,987.1
2022-09-15T01:23:53.311Z,987.2
2022-09-15T01:24:54.257Z,987.1
2022-09-15T01:25:55.310Z,987.1
2022-09-15T01:26:56.343Z,987
2022-09-15T01:27:57.251Z,987
2022-09-15T01:28:58.311Z,987
2022-09-15T01:29:59.282Z,987
2022-09-15T01:31:00.312Z,987
2022-09-15T01:32:01.392Z,987
2022-09-15T01:33:02.351Z,987.1
2022-09-15T01:34:03.299Z,987.1
2022-09-15T01:35:04.310Z,987.1
2022-09-15T01:36:05.354Z,987.1
2022-09-15T01:37:07.286Z,987.2
2022-09-15T01:38:08.251Z,987.1
2022-09-15T01:39:09.198Z,987.1
2022-09-15T01:40:10.385Z,987.1
2022-09-15T01:41:11.330Z,987.1
2022-09-15T01:42:12.236Z,987.1
2022-09-15T01:43:13.292Z,986.7
2022-09-15T01:44:14.235Z,987
2022-09-15T01:45:15.309Z,987.1
2022-09-15T01:46:16.345Z,987.1
2022-09-15T01:47:17.373Z,987.1
2022-09-15T01:48:19.310Z,987.1
2022-09-15T01:49:20.291Z,987.1
2022-09-15T01:50:22.338Z,987.1
2022-09-15T01:51:24.290Z,986.6
2022-09-15T01:52:25.291Z,986.9
2022-09-15T01:53:26.270Z,987
2022-09-15T01:54:27.230Z,987
2022-09-15T01:55:28.719Z,987
2022-09-15T01:56:30.291Z,987
2022-09-15T01:57:31.252Z,987
2022-09-15T01:58:32.361Z,987
2022-09-15T01:59:34.345Z,987
2022-09-15T02:00:36.231Z,987
2022-09-15T02:01:37.397Z,987
2022-09-15T02:02:38.399Z,987
2022-09-15T02:03:39.278Z,987
2022-09-15T02:04:40.330Z,987.1
2022-09-15T02:05:41.690Z,987.1
2022-09-15T02:06:43.490Z,987.1
2022-09-15T02:07:45.998Z,987.1
2022-09-15T02:08:47.603Z,987.1
2022-09-15T02:09:49.510Z,987.1
2022-09-15T02:10:51.461Z,987.1
2022-09-15T02:11:53.271Z,987.2
2022-09-15T02:12:54.735Z,987.1
2022-09-15T02:13:56.270Z,987.1
2022-09-15T02:14:57.290Z,987.1
2022-09-15T02:15:59.275Z,987.2
2022-09-15T02:17:00.338Z,987.1
2022-09-15T02:18:01.478Z,987.2
2022-09-15T02:19:03.310Z,987.2
2022-09-15T02:20:04.306Z,987.2
2022-09-15T02:21:05.410Z,987.2
2022-09-15T02:22:06.310Z,987.2
2022-09-15T02:23:07.392Z,987.3
2022-09-15T02:24:08.278Z,987.2
2022-09-15T02:25:09.330Z,987.3
2022-09-15T02:26:10.339Z,987.4
2022-09-15T02:27:11.330Z,987.4
2022-09-15T02:28:12.503Z,987.4
2022-09-15T02:29:14.379Z,987.4
2022-09-15T02:30:16.392Z,987.4
2022-09-15T02:31:17.338Z,987.4
2022-09-15T02:32:18.253Z,987.4
2022-09-15T02:33:19.391Z,987.4
2022-09-15T02:34:20.291Z,987.4
2022-09-15T02:35:21.525Z,987.4
2022-09-15T02:36:23.499Z,987.4
2022-09-15T02:37:25.430Z,987.4
2022-09-15T02:38:26.471Z,987.4
2022-09-15T02:39:28.335Z,987.5
2022-09-15T02:40:29.429Z,987.4
2022-09-15T02:41:30.310Z,987.4
2022-09-15T02:42:31.390Z,987.4
2022-09-15T02:43:32.475Z,987.4
2022-09-15T02:44:34.351Z,987.4
2022-09-15T02:45:35.491Z,987.4
2022-09-15T02:46:37.371Z,987.4
2022-09-15T02:47:38.558Z,987.4
2022-09-15T02:48:40.335Z,986.8
2022-09-15T02:49:42.490Z,987.3
2022-09-15T02:50:44.311Z,987.4
2022-09-15T02:51:46.510Z,987.3
2022-09-15T02:52:48.345Z,987.4
2022-09-15T02:53:49.444Z,987.4
2022-09-15T02:54:50.406Z,987.4
2022-09-15T02:55:51.771Z,987.4
2022-09-15T02:56:53.341Z,987.4
2022-09-15T02:57:54.670Z,987.4
2022-09-15T02:58:58.114Z,987.4
2022-09-15T02:59:59.530Z,987.4
2022-09-15T03:01:01.597Z,987.4
2022-09-15T03:02:03.507Z,987.4
2022-09-15T03:03:05.512Z,987.4
2022-09-15T03:04:07.421Z,987.4
2022-09-15T03:05:09.475Z,987.4
2022-09-15T03:06:10.811Z,987.5
2022-09-15T03:07:12.725Z,987.4
2022-09-15T03:08:14.270Z,987.4
2022-09-15T03:09:15.290Z,987.4
2022-09-15T03:10:16.270Z,987.4
2022-09-15T03:11:17.270Z,987.4
2022-09-15T03:12:18.350Z,987.4
2022-09-15T03:13:19.274Z,987.4
2022-09-15T03:14:20.764Z,987.5
2022-09-15T03:15:22.409Z,987.5
2022-09-15T03:16:24.633Z,987.6
2022-09-15T03:17:26.510Z,987.6
2022-09-15T03:18:28.518Z,987.6
2022-09-15T03:19:30.652Z,987.6
2022-09-15T03:20:32.970Z,987.6
2022-09-15T03:21:34.311Z,987.6
2022-09-15T03:22:35.448Z,987.6
2022-09-15T03:23:36.472Z,987.6
2022-09-15T03:24:38.350Z,987.6
2022-09-15T03:25:39.351Z,987.6
2022-09-15T03:26:40.393Z,987.6
2022-09-15T03:27:41.430Z,987.6
2022-09-15T03:28:42.560Z,987.6
2022-09-15T03:29:44.436Z,987.6
2022-09-15T03:30:45.418Z,987.7
2022-09-15T03:31:46.705Z,987.7
2022-09-15T03:32:48.553Z,987.8
2022-09-15T03:33:50.491Z,987.8
2022-09-15T03:34:56.418Z,987.9
2022-09-15T03:35:54.331Z,987.8
2022-09-15T03:36:55.456Z,987.8
2022-09-15T03:37:57.331Z,987.8
2022-09-15T03:38:58.391Z,987.8
2022-09-15T03:39:59.898Z,987.8
2022-09-15T03:41:02.091Z,987.8
2022-09-15T03:42:03.441Z,987.8
2022-09-15T03:43:04.650Z,987.8
2022-09-15T03:44:06.338Z,987.9
2022-09-15T03:45:07.516Z,988
2022-09-15T03:46:10.109Z,988
2022-09-15T03:47:11.592Z,988.1
2022-09-15T03:48:13.591Z,988.1
2022-09-15T03:49:15.638Z,987.9
2022-09-15T03:50:17.451Z,988.1
2022-09-15T03:51:18.332Z,988.2
2022-09-15T03:52:19.470Z,988.2
2022-09-15T03:53:20.420Z,988.2
2022-09-15T03:54:21.496Z,988.2
2022-09-15T03:55:23.430Z,988.2
2022-09-15T03:56:25.570Z,988.2
2022-09-15T03:57:27.816Z,988.2
2022-09-15T03:58:30.857Z,988.2
2022-09-15T03:59:30.546Z,988.2
2022-09-15T04:00:32.991Z,988.1
2022-09-15T04:01:34.593Z,988.1
2022-09-15T04:02:36.432Z,988.1
2022-09-15T04:03:42.173Z,988
2022-09-15T04:04:38.450Z,988
2022-09-15T04:05:39.910Z,988
2022-09-15T04:06:41.491Z,988
2022-09-15T04:07:43.593Z,988
2022-09-15T04:08:45.672Z,988.1
2022-09-15T04:09:47.706Z,988.1
2022-09-15T04:10:50.118Z,988.2
2022-09-15T04:11:51.663Z,988.2
2022-09-15T04:12:53.430Z,988.2
2022-09-15T04:13:54.511Z,988.2
2022-09-15T04:14:56.571Z,988.2
2022-09-15T04:15:58.619Z,988.2
2022-09-15T04:17:00.430Z,988.2
2022-09-15T04:18:01.654Z,988.2
2022-09-15T04:19:03.873Z,988.3
2022-09-15T04:20:05.794Z,988.3
2022-09-15T04:21:07.745Z,988.3
2022-09-15T04:22:10.290Z,988.4
2022-09-15T04:23:11.486Z,988.5
2022-09-15T04:24:13.597Z,988.4
2022-09-15T04:25:15.530Z,988.4
2022-09-15T04:26:17.458Z,988.4
2022-09-15T04:27:18.610Z,988.4
2022-09-15T04:28:20.435Z,988.3
2022-09-15T04:29:21.901Z,988.3
2022-09-15T04:30:24.098Z,988.3
2022-09-15T04:31:25.736Z,988.3
2022-09-15T04:32:27.412Z,988.3
2022-09-15T04:33:28.418Z,988.4
2022-09-15T04:34:30.360Z,988.4
2022-09-15T04:35:31.790Z,988.4
2022-09-15T04:36:33.412Z,988.4
2022-09-15T04:37:34.630Z,988.4
2022-09-15T04:38:36.570Z,988.4
2022-09-15T04:39:38.431Z,988.4
2022-09-15T04:40:39.573Z,988.3
2022-09-15T04:41:41.551Z,988.3
2022-09-15T04:42:43.470Z,988.4
2022-09-15T04:43:44.551Z,988.3
2022-09-15T04:44:46.430Z,988.3
2022-09-15T04:45:47.675Z,988.5
2022-09-15T04:46:49.489Z,988.5
2022-09-15T04:47:51.491Z,988.5
2022-09-15T04:49:07.377Z,988.5
2022-09-15T04:50:08.640Z,988.5
2022-09-15T04:52:34.491Z,988.4
2022-09-15T04:53:36.410Z,988.5
2022-09-15T04:54:37.455Z,988.5
2022-09-15T04:55:39.678Z,988.6
2022-09-15T04:56:41.736Z,988.6
2022-09-15T04:57:43.466Z,988.6
2022-09-15T04:58:45.431Z,988.6
2022-09-15T05:00:02.751Z,988.6
2022-09-15T05:01:04.628Z,988.6
2022-09-15T05:02:06.589Z,988.6
2022-09-15T05:03:28.651Z,988.6
2022-09-15T05:04:30.630Z,988.6
2022-09-15T05:05:47.530Z,988.6
2022-09-15T05:08:31.340Z,988.5
2022-09-15T05:09:47.490Z,988.5
2022-09-15T05:10:49.451Z,988.4
2022-09-15T05:13:18.610Z,988.4
2022-09-15T05:14:38.809Z,988.4
2022-09-15T05:15:40.520Z,988.4
2022-09-15T05:16:43.036Z,988.4
2022-09-15T05:17:44.435Z,988.4
2022-09-15T05:19:02.755Z,988.5
2022-09-15T05:20:04.591Z,988.5
2022-09-15T05:21:06.512Z,988.5
2022-09-15T05:22:24.592Z,988.5
2022-09-15T05:23:26.531Z,988.6
2022-09-15T05:24:43.251Z,988.6
2022-09-15T05:25:47.582Z,988.6
2022-09-15T05:27:02.591Z,988.6
2022-09-15T05:28:04.871Z,988.6
2022-09-15T05:29:06.793Z,988.7
2022-09-15T05:30:37.096Z,988.7
2022-09-15T05:31:25.628Z,988.7
2022-09-15T05:32:27.671Z,988.7
2022-09-15T05:33:42.454Z,988.7
2022-09-15T05:34:44.570Z,988.9
2022-09-15T05:35:46.659Z,988.7
2022-09-15T05:36:48.470Z,988.8
2022-09-15T05:37:51.581Z,988.7
2022-09-15T05:38:53.505Z,988.7
2022-09-15T05:41:27.552Z,988.8
2022-09-15T05:42:44.751Z,988.8
2022-09-15T05:45:51.578Z,988.8
2022-09-15T05:46:53.844Z,988.9
2022-09-15T05:47:55.450Z,988.8
2022-09-15T05:49:12.659Z,988.8
2022-09-15T05:50:14.471Z,988.8
2022-09-15T05:51:15.688Z,988.8
2022-09-15T05:52:17.552Z,988.8
2022-09-15T05:53:34.630Z,988.8
2022-09-15T05:54:37.131Z,988.8
2022-09-15T05:55:38.675Z,988.8
2022-09-15T05:56:40.511Z,988.8
2022-09-15T05:57:43.336Z,988.9
2022-09-15T05:58:45.610Z,988.8
2022-09-15T05:59:47.687Z,988.9
2022-09-15T06:01:08.621Z,988.9
2022-09-15T06:02:10.682Z,988.8
2022-09-15T06:03:12.549Z,988.8
2022-09-15T06:04:14.435Z,988.8
2022-09-15T06:05:15.556Z,988.8
2022-09-15T06:06:17.772Z,988.8
2022-09-15T06:07:19.597Z,988.8
2022-09-15T06:08:21.589Z,988.8
2022-09-15T06:09:23.565Z,988.8
2022-09-15T06:10:25.632Z,988.8
2022-09-15T06:11:27.592Z,988.8
2022-09-15T06:12:29.582Z,988.8
2022-09-15T06:13:31.944Z,988.7
2022-09-15T06:14:33.611Z,988.8
2022-09-15T06:15:35.570Z,988.8
2022-09-15T06:16:37.491Z,988.8
2022-09-15T06:17:38.742Z,988.7
2022-09-15T06:18:40.490Z,988.7
2022-09-15T06:19:41.671Z,988.7
2022-09-15T06:20:43.455Z,988.7
2022-09-15T06:21:45.452Z,988.7
2022-09-15T06:22:46.630Z,988.8
2022-09-15T06:23:50.860Z,987.7
2022-09-15T06:24:51.020Z,988.5
2022-09-15T06:25:53.750Z,988.7
2022-09-15T06:26:55.631Z,988.8
2022-09-15T06:27:57.450Z,988.8
2022-09-15T06:28:59.654Z,988.8
2022-09-15T06:30:01.821Z,988.8
2022-09-15T06:31:03.644Z,988.8
2022-09-15T06:32:05.598Z,988.8
2022-09-15T06:33:06.491Z,988.8
2022-09-15T06:34:09.637Z,988.7
2022-09-15T06:35:11.696Z,988.7
2022-09-15T06:36:13.617Z,988.8
2022-09-15T06:37:15.551Z,988.7
2022-09-15T06:38:17.817Z,988.8
2022-09-15T06:39:20.073Z,988.8
2022-09-15T06:40:21.703Z,988.8
2022-09-15T06:41:23.650Z,988.8
2022-09-15T06:42:25.670Z,988.8
2022-09-15T06:43:27.704Z,988.8
2022-09-15T06:44:29.731Z,988.9
2022-09-15T06:45:31.511Z,988.9
2022-09-15T06:46:32.522Z,989
2022-09-15T06:47:33.430Z,988.8
2022-09-15T06:48:34.438Z,988.8
2022-09-15T06:49:35.455Z,988.8
2022-09-15T06:50:36.450Z,988.9
2022-09-15T06:51:37.434Z,988.9
2022-09-15T06:52:39.499Z,988.9
2022-09-15T06:53:40.450Z,988.9
2022-09-15T06:54:41.551Z,988.9
2022-09-15T06:55:42.613Z,988.9
2022-09-15T06:56:44.510Z,989
2022-09-15T06:57:46.494Z,989
2022-09-15T06:58:48.481Z,989.1
2022-09-15T06:59:50.953Z,989.1
2022-09-15T07:00:52.477Z,989
2022-09-15T07:01:53.521Z,989
2022-09-15T07:02:54.502Z,989
2022-09-15T07:03:55.518Z,989
2022-09-15T07:04:57.558Z,989
2022-09-15T07:05:59.456Z,989
2022-09-15T07:07:01.601Z,989.1
2022-09-15T07:08:03.450Z,989.1
2022-09-15T07:09:04.349Z,989.1
2022-09-15T07:10:05.491Z,989.1
2022-09-15T07:11:06.429Z,989.1
2022-09-15T07:12:07.471Z,989.1
2022-09-15T07:13:09.432Z,989
2022-09-15T07:14:10.492Z,989.1
2022-09-15T07:15:12.632Z,989.1
2022-09-15T07:16:14.556Z,989.1
2022-09-15T07:17:15.730Z,989.2
2022-09-15T07:18:17.551Z,989.1
2022-09-15T07:19:18.435Z,989.2
2022-09-15T07:20:19.680Z,989.2
2022-09-15T07:21:21.472Z,989.3
2022-09-15T07:22:22.914Z,989.3
2022-09-15T07:23:24.435Z,989.3
2022-09-15T07:24:25.610Z,989.3
2022-09-15T07:25:27.491Z,989.3
2022-09-15T07:26:28.485Z,989.3
2022-09-15T07:27:29.504Z,989.3
2022-09-15T07:28:30.473Z,989.3
2022-09-15T07:29:33.830Z,989.3
2022-09-15T07:30:32.490Z,989.3
2022-09-15T07:31:33.566Z,989.3
2022-09-15T07:32:34.511Z,989.4
2022-09-15T07:33:36.532Z,989.4
2022-09-15T07:34:38.510Z,989.4
2022-09-15T07:35:40.462Z,989.4
2022-09-15T07:36:41.637Z,989.3
2022-09-15T07:37:43.512Z,989.3
2022-09-15T07:38:45.672Z,989.4
2022-09-15T07:39:48.187Z,989.3
2022-09-15T07:40:49.612Z,989.4
2022-09-15T07:41:51.850Z,989.4
2022-09-15T07:42:53.583Z,989.5
2022-09-15T07:43:55.650Z,989.5
2022-09-15T07:44:57.670Z,989.4
2022-09-15T07:45:59.731Z,989.4
2022-09-15T07:47:01.511Z,989.5
2022-09-15T07:48:03.871Z,989.5
2022-09-15T07:49:05.609Z,989.6
2022-09-15T07:50:07.570Z,989.6
2022-09-15T07:51:08.911Z,989.7
2022-09-15T07:52:10.559Z,989.7
2022-09-15T07:53:11.489Z,989.7
2022-09-15T07:54:12.632Z,989.7
2022-09-15T07:55:14.470Z,989.7
2022-09-15T07:56:15.570Z,989.7
2022-09-15T07:57:17.518Z,989.8
2022-09-15T07:58:18.509Z,989.7
2022-09-15T07:59:19.450Z,989.7
2022-09-15T08:00:20.463Z,989.7
2022-09-15T08:01:21.624Z,989.7
2022-09-15T08:02:22.520Z,989.7
2022-09-15T08:03:23.640Z,989.7
2022-09-15T08:04:25.531Z,989.8
2022-09-15T08:05:26.591Z,989.8
2022-09-15T08:06:27.494Z,989.8
2022-09-15T08:07:28.530Z,989.8
2022-09-15T08:08:29.553Z,989.7
2022-09-15T08:09:30.471Z,989.9
2022-09-15T08:10:31.496Z,989.9
2022-09-15T08:11:32.551Z,989.9
2022-09-15T08:12:33.490Z,989.8
2022-09-15T08:13:34.470Z,989.8
2022-09-15T08:14:35.538Z,989.8
2022-09-15T08:15:36.546Z,989.8
2022-09-15T08:16:37.922Z,989.9
2022-09-15T08:17:39.550Z,989.9
2022-09-15T08:18:41.524Z,989.9
2022-09-15T08:19:43.752Z,989.9
2022-09-15T08:20:45.531Z,989.9
2022-09-15T08:21:46.511Z,989.9
2022-09-15T08:22:47.470Z,989.9
2022-09-15T08:23:49.580Z,990
2022-09-15T08:24:51.470Z,990
2022-09-15T08:25:52.612Z,989.9
2022-09-15T08:26:53.537Z,989.8
2022-09-15T08:27:54.497Z,989.8
2022-09-15T08:28:55.530Z,989.8
2022-09-15T08:29:56.562Z,989.8
2022-09-15T08:30:57.605Z,989.8
2022-09-15T08:31:58.571Z,989.7
2022-09-15T08:33:00.526Z,989.7
2022-09-15T08:34:01.485Z,989.8
2022-09-15T08:35:02.518Z,989.8
2022-09-15T08:36:03.578Z,989.7
2022-09-15T08:37:04.578Z,989.8
2022-09-15T08:38:05.810Z,989.8
2022-09-15T08:39:07.573Z,989.7
2022-09-15T08:40:08.706Z,989.7
2022-09-15T08:41:10.531Z,989.8
2022-09-15T08:42:12.570Z,989.8
2022-09-15T08:43:14.500Z,989.8
2022-09-15T08:44:15.550Z,989.8
2022-09-15T08:45:16.571Z,989.7
2022-09-15T08:46:17.585Z,989.8
2022-09-15T08:47:18.511Z,989.7
2022-09-15T08:48:20.470Z,989.7
2022-09-15T08:49:35.737Z,989.7
2022-09-15T08:50:22.571Z,989.7
2022-09-15T08:51:23.490Z,989.6
2022-09-15T08:52:24.451Z,989.6
2022-09-15T08:53:25.550Z,989.6
2022-09-15T08:54:27.657Z,989.6
2022-09-15T08:55:29.530Z,989.6
2022-09-15T08:56:30.474Z,989.6
2022-09-15T08:57:31.535Z,989.6
2022-09-15T08:58:32.610Z,989.5
2022-09-15T08:59:33.961Z,989.5
2022-09-15T09:00:35.458Z,989.6
2022-09-15T09:01:36.548Z,989.6
2022-09-15T09:02:37.578Z,989.6
2022-09-15T09:03:38.552Z,989.6
2022-09-15T09:04:39.510Z,989.6
2022-09-15T09:05:40.453Z,989.5
2022-09-15T09:06:41.471Z,989.6
2022-09-15T09:07:42.613Z,989.6
2022-09-15T09:08:43.831Z,989.6
2022-09-15T09:09:45.573Z,989.6
2022-09-15T09:10:47.528Z,989.7
2022-09-15T09:11:49.634Z,989.6
2022-09-15T09:12:51.510Z,989.5
2022-09-15T09:13:52.551Z,989.5
2022-09-15T09:14:53.514Z,989.5
2022-09-15T09:15:54.524Z,989.4
2022-09-15T09:16:55.671Z,989.5
2022-09-15T09:17:57.567Z,989.5
2022-09-15T09:18:58.511Z,989.6
2022-09-15T09:19:59.491Z,989.6
2022-09-15T09:21:00.430Z,989.5
2022-09-15T09:22:01.510Z,989.6
2022-09-15T09:23:02.632Z,989.5
2022-09-15T09:24:04.571Z,989.5
2022-09-15T09:25:16.212Z,989.5
2022-09-15T09:26:10.419Z,989.6
2022-09-15T09:27:08.791Z,989.6
2022-09-15T09:28:10.558Z,989.5
2022-09-15T09:29:11.550Z,989.6
2022-09-15T09:30:12.572Z,989.5
2022-09-15T09:31:13.520Z,989.6
2022-09-15T09:32:16.829Z,989.6
2022-09-15T09:33:15.510Z,989.5
2022-09-15T09:34:16.562Z,989.6
2022-09-15T09:35:17.590Z,989.5
2022-09-15T09:36:18.612Z,989.5
2022-09-15T09:37:19.637Z,989.5
2022-09-15T09:38:20.531Z,989.5
2022-09-15T09:39:22.327Z,989.5
2022-09-15T09:40:23.647Z,989.5
2022-09-15T09:41:24.599Z,989.5
2022-09-15T09:42:25.610Z,989.5
2022-09-15T09:43:27.802Z,989.6
2022-09-15T09:44:30.071Z,989.6
2022-09-15T09:45:31.540Z,989.5
2022-09-15T09:46:32.618Z,989.6
2022-09-15T09:47:33.614Z,989.6
2022-09-15T09:48:35.590Z,989.6
2022-09-15T09:49:37.730Z,989.6
2022-09-15T09:50:39.659Z,989.6
2022-09-15T09:51:41.507Z,989.6
2022-09-15T09:52:42.517Z,989.6
2022-09-15T09:53:44.044Z,989.6
2022-09-15T09:54:45.580Z,989.6
2022-09-15T09:55:46.612Z,989.5
2022-09-15T09:56:47.590Z,989.5
2022-09-15T09:57:48.650Z,989
2022-09-15T09:58:50.599Z,989.4
2022-09-15T09:59:51.578Z,989.4
2022-09-15T10:00:52.570Z,989.5
2022-09-15T10:01:53.739Z,989.5
2022-09-15T10:02:54.652Z,989.5
2022-09-15T10:03:55.572Z,989.6
2022-09-15T10:04:56.640Z,989.6
2022-09-15T10:05:57.730Z,989.6
2022-09-15T10:06:59.531Z,989.6
2022-09-15T10:08:00.591Z,989.6
2022-09-15T10:09:01.550Z,989.5
2022-09-15T10:10:02.613Z,989.5
2022-09-15T10:11:03.615Z,989.4
2022-09-15T10:12:04.570Z,989.5
2022-09-15T10:13:05.570Z,989.4
2022-09-15T10:14:06.550Z,989.4
2022-09-15T10:15:07.593Z,989.5
2022-09-15T10:16:08.553Z,989.4
2022-09-15T10:17:09.631Z,989.4
2022-09-15T10:18:10.493Z,989.5
2022-09-15T10:19:11.538Z,989.5
2022-09-15T10:20:12.618Z,989.5
2022-09-15T10:21:13.610Z,989.5
2022-09-15T10:22:14.590Z,989.5
2022-09-15T10:23:15.791Z,989.6
2022-09-15T10:24:18.214Z,989.6
2022-09-15T10:25:18.690Z,989.6
2022-09-15T10:26:20.669Z,989.5
2022-09-15T10:27:21.571Z,989.5
2022-09-15T10:28:23.570Z,989.5
2022-09-15T10:29:24.651Z,989.5
2022-09-15T10:30:25.661Z,989.5
2022-09-15T10:31:27.668Z,989.5
2022-09-15T10:32:28.772Z,989.6
2022-09-15T10:33:30.600Z,989.6
2022-09-15T10:34:31.648Z,989.6
2022-09-15T10:35:32.739Z,989.6
2022-09-15T10:36:34.588Z,989.5
2022-09-15T10:37:36.579Z,989.5
2022-09-15T10:38:38.553Z,989.5
2022-09-15T10:39:39.553Z,989.6
2022-09-15T10:40:40.614Z,989.6
2022-09-15T10:41:41.707Z,989.6
2022-09-15T10:42:42.587Z,989.6
2022-09-15T10:43:43.610Z,989.6
2022-09-15T10:44:44.711Z,989.2
2022-09-15T10:45:46.714Z,989.5
2022-09-15T10:46:48.859Z,989.5
2022-09-15T10:47:50.609Z,989.5
2022-09-15T10:48:52.770Z,989.6
2022-09-15T10:49:54.622Z,989.5
2022-09-15T10:50:55.799Z,989.4
2022-09-15T10:51:57.544Z,989.4
2022-09-15T10:52:58.644Z,989.2
2022-09-15T10:53:59.785Z,989.4
2022-09-15T10:55:00.530Z,989.4
2022-09-15T10:56:01.750Z,989.4
2022-09-15T10:57:03.554Z,989.5
2022-09-15T10:58:04.793Z,989.4
2022-09-15T10:59:06.565Z,989.3
2022-09-15T11:00:07.590Z,989.3
2022-09-15T11:01:08.733Z,989.3
2022-09-15T11:02:10.742Z,989.3
2022-09-15T11:03:12.613Z,989.3
2022-09-15T11:04:13.670Z,989.3
2022-09-15T11:05:16.867Z,989.3
2022-09-15T11:06:15.674Z,989.4
2022-09-15T11:07:16.671Z,989.4
2022-09-15T11:08:17.834Z,989.4
2022-09-15T11:09:19.610Z,989.3
2022-09-15T11:10:21.690Z,989.3
2022-09-15T11:11:23.667Z,989.3
2022-09-15T11:12:28.485Z,989.3
2022-09-15T11:13:25.611Z,989.3
2022-09-15T11:14:26.592Z,989.3
2022-09-15T11:15:27.643Z,989.3
2022-09-15T11:16:29.749Z,989.3
2022-09-15T11:17:30.631Z,989.3
2022-09-15T11:18:31.563Z,989.3
2022-09-15T11:19:32.569Z,989.3
2022-09-15T11:20:34.030Z,989.3
2022-09-15T11:21:35.628Z,989.3
2022-09-15T11:22:36.561Z,989.3
2022-09-15T11:23:37.538Z,989.2
2022-09-15T11:24:38.616Z,989.3
2022-09-15T11:25:40.610Z,989.3
2022-09-15T11:26:41.650Z,989.3
2022-09-15T11:27:42.690Z,989.3
2022-09-15T11:28:43.610Z,989.3
2022-09-15T11:29:44.990Z,989.3
2022-09-15T11:30:47.845Z,989.2
2022-09-15T11:31:47.786Z,989.2
2022-09-15T11:32:48.599Z,989.2
2022-09-15T11:33:49.619Z,989.3
2022-09-15T11:34:50.570Z,989.3
2022-09-15T11:35:51.750Z,989.3
2022-09-15T11:36:53.610Z,989.2
2022-09-15T11:37:54.590Z,989.2
2022-09-15T11:38:55.610Z,989.2
2022-09-15T11:39:56.894Z,989.2
2022-09-15T11:40:58.647Z,989.3
2022-09-15T11:41:59.670Z,989.3
2022-09-15T11:43:00.701Z,989.2
2022-09-15T11:44:01.551Z,989.2
2022-09-15T11:45:02.651Z,989.2
2022-09-15T11:46:03.630Z,989.2
2022-09-15T11:47:05.022Z,989.2
2022-09-15T11:48:06.590Z,989.1
2022-09-15T11:49:07.632Z,989.1
2022-09-15T11:50:08.642Z,989.1
2022-09-15T11:51:09.790Z,989.1
2022-09-15T11:52:11.957Z,989.1
2022-09-15T11:53:13.789Z,989.1
2022-09-15T11:54:15.651Z,989.1
2022-09-15T11:55:18.011Z,989
2022-09-15T11:56:19.878Z,989.1
2022-09-15T11:57:21.770Z,989.1
2022-09-15T11:58:23.796Z,989.1
2022-09-15T11:59:25.831Z,989.1
2022-09-15T12:00:27.690Z,989.1
2022-09-15T12:01:30.130Z,989
2022-09-15T12:02:31.803Z,989.1
2022-09-15T12:03:33.791Z,989.1
2022-09-15T12:04:35.629Z,989.1
2022-09-15T12:05:37.639Z,989.1
2022-09-15T12:06:42.078Z,989.1
2022-09-15T12:07:39.555Z,989.1
2022-09-15T12:08:40.631Z,989.1
2022-09-15T12:09:41.607Z,989.1
2022-09-15T12:10:42.696Z,989.1
2022-09-15T12:11:44.977Z,989.1
2022-09-15T12:12:46.630Z,989.1
2022-09-15T12:13:47.727Z,989.2
2022-09-15T12:14:48.638Z,989.2
2022-09-15T12:15:49.663Z,989.2
2022-09-15T12:16:50.631Z,989.2
2022-09-15T12:17:51.647Z,989.1
2022-09-15T12:18:52.749Z,989.1
2022-09-15T12:19:53.630Z,989.1
2022-09-15T12:20:54.850Z,989.1
2022-09-15T12:21:56.694Z,989.1
2022-09-15T12:22:58.598Z,989.1
2022-09-15T12:23:59.770Z,988.7
2022-09-15T12:25:01.450Z,989
2022-09-15T12:26:02.950Z,989.1
2022-09-15T12:27:04.679Z,989
2022-09-15T12:28:05.598Z,989
2022-09-15T12:29:06.735Z,989
2022-09-15T12:30:08.859Z,989
2022-09-15T12:31:10.692Z,989
2022-09-15T12:32:11.631Z,989
2022-09-15T12:33:12.646Z,989
2022-09-15T12:34:13.671Z,989
2022-09-15T12:35:14.693Z,988.9
2022-09-15T12:36:15.590Z,988.9
2022-09-15T12:37:16.693Z,988.9
2022-09-15T12:38:17.572Z,988.9
2022-09-15T12:39:18.671Z,988.9
2022-09-15T12:40:20.779Z,989
2022-09-15T12:41:21.707Z,988.9
2022-09-15T12:42:23.693Z,988.9
2022-09-15T12:43:25.752Z,989
2022-09-15T12:44:26.737Z,988.9
2022-09-15T12:45:27.700Z,988.4
2022-09-15T12:46:28.727Z,988.8
2022-09-15T12:47:30.651Z,988.9
2022-09-15T12:48:31.701Z,988.9
2022-09-15T12:49:32.661Z,988.9
2022-09-15T12:50:33.674Z,988.9
2022-09-15T12:51:34.675Z,988.9
2022-09-15T12:52:35.636Z,988.9
2022-09-15T12:53:36.676Z,988.9
2022-09-15T12:54:37.645Z,988.9
2022-09-15T12:55:38.644Z,988.9
2022-09-15T12:56:39.711Z,988.9
2022-09-15T12:57:40.643Z,988.6
2022-09-15T12:58:41.641Z,988.8
2022-09-15T12:59:42.921Z,988.8
2022-09-15T13:01:07.070Z,988.8
2022-09-15T13:01:46.732Z,988.7
2022-09-15T13:02:47.730Z,988.8
2022-09-15T13:03:48.651Z,988.8
2022-09-15T13:04:49.751Z,988.9
2022-09-15T13:05:51.642Z,988.8
2022-09-15T13:06:52.636Z,988.8
2022-09-15T13:07:53.785Z,988.8
2022-09-15T13:08:54.644Z,988.8
2022-09-15T13:09:55.665Z,988.8
2022-09-15T13:10:56.663Z,988.8
2022-09-15T13:11:57.609Z,988.8
2022-09-15T13:12:58.665Z,988.8
2022-09-15T13:13:59.655Z,988.8
2022-09-15T13:15:00.777Z,988.7
2022-09-15T13:16:02.782Z,988.7
2022-09-15T13:17:03.623Z,988.7
2022-09-15T13:18:04.811Z,988.7
2022-09-15T13:19:05.673Z,988.7
2022-09-15T13:20:06.864Z,988.7
2022-09-15T13:21:08.636Z,988.8
2022-09-15T13:22:09.696Z,988.8
2022-09-15T13:23:10.694Z,988.7
2022-09-15T13:24:11.784Z,988.7
2022-09-15T13:25:13.023Z,988.7
2022-09-15T13:26:14.682Z,988.7
2022-09-15T13:27:15.813Z,988.7
2022-09-15T13:28:18.001Z,988.7
2022-09-15T13:29:19.895Z,988.7
2022-09-15T13:30:21.721Z,988.7
2022-09-15T13:31:22.703Z,988.7
2022-09-15T13:32:23.725Z,988.7